| time (UTC) | temp C | wind direction | speed KPH | gust KPH | rain 1hr cm | rain 24hr cm | rain mn cm | humidity % | barometer mb |
| 20260507143158 | 20 | 344 | 1.6 | 9.7 | 0.00 | 0.00 | 0.00 | 31 | 967.7 |
| 20260507142635 | 19 | 345 | 1.6 | 9.7 | 0.00 | 0.00 | 0.00 | 33 | 967.8 |
| 20260507142140 | 18 | 345 | 0.0 | 4.8 | 0.00 | 0.00 | 0.00 | 34 | 967.8 |
| 20260507141705 | 18 | 345 | 0.0 | 4.8 | 0.00 | 0.00 | 0.00 | 35 | 967.7 |
| 20260507141129 | 18 | 345 | 0.0 | 4.8 | 0.00 | 0.00 | 0.00 | 34 | 967.7 |
| 20260507140633 | 18 | 345 | 1.6 | 4.8 | 0.00 | 0.00 | 0.00 | 34 | 967.7 |
| 20260507140158 | 17 | 345 | 0.0 | 8.0 | 0.00 | 0.00 | 0.00 | 34 | 967.7 |
| 20260507135634 | 17 | 345 | 1.6 | 6.4 | 0.00 | 0.00 | 0.00 | 34 | 967.7 |
| 20260507135138 | 17 | 345 | 0.0 | 9.7 | 0.00 | 0.00 | 0.00 | 34 | 967.7 |
| 20260507134642 | 17 | 348 | 1.6 | 16.1 | 0.00 | 0.00 | 0.00 | 34 | 967.6 |
| 20260507134125 | 17 | 348 | 8.0 | 16.1 | 0.00 | 0.00 | 0.00 | 34 | 967.5 |
| 20260507133630 | 17 | 348 | 4.8 | 9.7 | 0.00 | 0.00 | 0.00 | 34 | 967.5 |
| 20260507133134 | 17 | 348 | 4.8 | 9.7 | 0.00 | 0.00 | 0.00 | 34 | 967.5 |
| 20260507132631 | 17 | 348 | 1.6 | 8.0 | 0.00 | 0.00 | 0.00 | 34 | 967.5 |
| 20260507132135 | 17 | 348 | 4.8 | 16.1 | 0.00 | 0.00 | 0.00 | 34 | 967.5 |
| 20260507131639 | 17 | 348 | 4.8 | 19.3 | 0.00 | 0.00 | 0.00 | 33 | 967.4 |
| 20260507131144 | 16 | 348 | 4.8 | 19.3 | 0.00 | 0.00 | 0.00 | 33 | 967.4 |
| 20260507130641 | 16 | 351 | 9.7 | 16.1 | 0.00 | 0.00 | 0.00 | 33 | 967.3 |
| 20260507130126 | 16 | 351 | 11.3 | 14.5 | 0.00 | 0.00 | 0.00 | 33 | 967.2 |
| 20260507125630 | 16 | 355 | 4.8 | 8.0 | 0.00 | 0.00 | 0.00 | 33 | 967.2 |
| 20260507125134 | 16 | 355 | 3.2 | 4.8 | 0.00 | 0.00 | 0.00 | 33 | 967.2 |
| 20260507124632 | 17 | 355 | 0.0 | 3.2 | 0.00 | 0.00 | 0.00 | 33 | 967.1 |
| 20260507124136 | 17 | 355 | 0.0 | 4.8 | 0.00 | 0.00 | 0.00 | 32 | 967.0 |
| 20260507123641 | 17 | 355 | 0.0 | 6.4 | 0.00 | 0.00 | 0.00 | 32 | 967.0 |
| 20260507123145 | 17 | 355 | 3.2 | 9.7 | 0.00 | 0.00 | 0.00 | 33 | 967.0 |
| 20260507122650 | 17 | 355 | 4.8 | 9.7 | 0.00 | 0.00 | 0.00 | 33 | 967.1 |
| 20260507122154 | 17 | 355 | 3.2 | 8.0 | 0.00 | 0.00 | 0.00 | 33 | 967.0 |
| 20260507121631 | 17 | 355 | 1.6 | 6.4 | 0.00 | 0.00 | 0.00 | 33 | 967.0 |
| 20260507121135 | 17 | 355 | 1.6 | 9.7 | 0.00 | 0.00 | 0.00 | 33 | 967.0 |
| 20260507120639 | 17 | 355 | 3.2 | 9.7 | 0.00 | 0.00 | 0.00 | 33 | 967.0 |
| 20260507120143 | 17 | 355 | 3.2 | 6.4 | 0.00 | 0.00 | 0.00 | 33 | 967.1 |
| 20260507115641 | 17 | 355 | 3.2 | 6.4 | 0.00 | 0.00 | 0.00 | 33 | 967.1 |
| 20260507115126 | 17 | 355 | 1.6 | 6.4 | 0.00 | 0.00 | 0.00 | 33 | 967.2 |
| 20260507114631 | 17 | 355 | 1.6 | 6.4 | 0.00 | 0.00 | 0.00 | 33 | 967.3 |
| 20260507114136 | 17 | 355 | 0.0 | 3.2 | 0.00 | 0.00 | 0.00 | 33 | 967.3 |
| 20260507113640 | 17 | 355 | 0.0 | 3.2 | 0.00 | 0.00 | 0.00 | 33 | 967.4 |
| 20260507113136 | 17 | 355 | 0.0 | 3.2 | 0.00 | 0.00 | 0.00 | 32 | 967.3 |
| 20260507112641 | 17 | 355 | 0.0 | 4.8 | 0.00 | 0.00 | 0.00 | 32 | 967.4 |
| 20260507112126 | 17 | 355 | 1.6 | 4.8 | 0.00 | 0.00 | 0.00 | 32 | 967.4 |
| 20260507111630 | 17 | 355 | 1.6 | 6.4 | 0.00 | 0.00 | 0.00 | 31 | 967.4 |
| 20260507111127 | 17 | 355 | 3.2 | 6.4 | 0.00 | 0.00 | 0.00 | 31 | 967.5 |
| 20260507110631 | 17 | 355 | 1.6 | 4.8 | 0.00 | 0.00 | 0.00 | 31 | 967.5 |
| 20260507110130 | 17 | 355 | 0.0 | 6.4 | 0.00 | 0.00 | 0.00 | 31 | 967.6 |
| 20260507105634 | 17 | 355 | 3.2 | 6.4 | 0.00 | 0.00 | 0.00 | 31 | 967.6 |
| 20260507105138 | 17 | 355 | 0.0 | 12.9 | 0.00 | 0.00 | 0.00 | 31 | 967.5 |
| 20260507104636 | 17 | 355 | 4.8 | 12.9 | 0.00 | 0.00 | 0.00 | 31 | 967.5 |
| 20260507104141 | 17 | 351 | 1.6 | 8.0 | 0.00 | 0.00 | 0.00 | 31 | 967.7 |
| 20260507103625 | 17 | 351 | 3.2 | 8.0 | 0.00 | 0.00 | 0.00 | 31 | 967.6 |
| 20260507103150 | 17 | 351 | 1.6 | 4.8 | 0.00 | 0.00 | 0.00 | 31 | 967.7 |
| 20260507102653 | 17 | 351 | 0.0 | 1.6 | 0.00 | 0.00 | 0.00 | 30 | 967.7 |
| 20260507102130 | 18 | 351 | 0.0 | 4.8 | 0.00 | 0.00 | 0.00 | 30 | 967.7 |
| 20260507101634 | 18 | 351 | 0.0 | 16.1 | 0.00 | 0.00 | 0.00 | 29 | 967.8 |
| 20260507101138 | 18 | 350 | 8.0 | 17.7 | 0.00 | 0.00 | 0.00 | 29 | 967.8 |
| 20260507100643 | 18 | 355 | 8.0 | 16.1 | 0.00 | 0.00 | 0.00 | 29 | 967.8 |
| 20260507100141 | 18 | 355 | 9.7 | 19.3 | 0.00 | 0.00 | 0.00 | 29 | 967.7 |
| 20260507095625 | 18 | 351 | 11.3 | 20.9 | 0.00 | 0.00 | 0.00 | 29 | 967.7 |
| 20260507095130 | 18 | 328 | 14.5 | 25.7 | 0.00 | 0.00 | 0.00 | 29 | 967.7 |
| 20260507094628 | 18 | 329 | 17.7 | 25.7 | 0.00 | 0.00 | 0.00 | 28 | 967.7 |
| 20260507094131 | 18 | 330 | 16.1 | 24.1 | 0.00 | 0.00 | 0.00 | 29 | 967.7 |
| 20260507093636 | 18 | 355 | 11.3 | 17.7 | 0.00 | 0.00 | 0.00 | 28 | 967.6 |
| 20260507093202 | 18 | 355 | 9.7 | 20.9 | 0.00 | 0.00 | 0.00 | 28 | 967.6 |
| 20260507092645 | 18 | 355 | 11.3 | 20.9 | 0.00 | 0.00 | 0.00 | 28 | 967.6 |
| 20260507092143 | 18 | 355 | 16.1 | 22.5 | 0.00 | 0.00 | 0.00 | 28 | 967.6 |
| 20260507091627 | 18 | 342 | 14.5 | 27.4 | 0.00 | 0.00 | 0.00 | 27 | 967.6 |
| 20260507091132 | 19 | 322 | 17.7 | 27.4 | 0.00 | 0.00 | 0.00 | 27 | 967.6 |
| 20260507090637 | 19 | 342 | 16.1 | 25.7 | 0.00 | 0.00 | 0.00 | 27 | 967.7 |
| 20260507090141 | 19 | 5 | 14.5 | 30.6 | 0.00 | 0.00 | 0.00 | 27 | 967.7 |
| 20260507085646 | 19 | 287 | 19.3 | 30.6 | 0.00 | 0.00 | 0.00 | 28 | 967.6 |
| 20260507085142 | 19 | 17 | 0.0 | 17.7 | 0.00 | 0.00 | 0.00 | 28 | 967.7 |
| 20260507084626 | 19 | 19 | 8.0 | 19.3 | 0.00 | 0.00 | 0.00 | 28 | 967.6 |
| 20260507084130 | 18 | 360 | 14.5 | 19.3 | 0.00 | 0.00 | 0.00 | 29 | 967.7 |
| 20260507083635 | 18 | 40 | 11.3 | 17.7 | 0.00 | 0.00 | 0.00 | 28 | 967.8 |
| 20260507083201 | 18 | 42 | 8.0 | 14.5 | 0.00 | 0.00 | 0.00 | 28 | 967.8 |
| 20260507082638 | 18 | 45 | 6.4 | 11.3 | 0.00 | 0.00 | 0.00 | 28 | 967.9 |
| 20260507082203 | 18 | 46 | 3.2 | 8.0 | 0.00 | 0.00 | 0.00 | 29 | 968.0 |
| 20260507081626 | 18 | 46 | 0.0 | 1.6 | 0.00 | 0.00 | 0.00 | 29 | 968.0 |
| 20260507081131 | 18 | 46 | 0.0 | 0.0 | 0.00 | 0.00 | 0.00 | 29 | 967.9 |
| 20260507080633 | 19 | 46 | 0.0 | 0.0 | 0.00 | 0.00 | 0.00 | 29 | 968.0 |
| 20260507075627 | 19 | 46 | 0.0 | 1.6 | 0.00 | 0.00 | 0.00 | 29 | 968.0 |
| 20260507075132 | 19 | 46 | 0.0 | 6.4 | 0.00 | 0.00 | 0.00 | 28 | 968.0 |
| 20260507074636 | 19 | 46 | 0.0 | 9.7 | 0.00 | 0.00 | 0.00 | 28 | 967.9 |
| 20260507074140 | 19 | 46 | 4.8 | 16.1 | 0.00 | 0.00 | 0.00 | 28 | 967.9 |
| 20260507073639 | 19 | 46 | 6.4 | 16.1 | 0.00 | 0.00 | 0.00 | 28 | 967.9 |
| 20260507073144 | 19 | 73 | 3.2 | 6.4 | 0.00 | 0.00 | 0.00 | 28 | 967.9 |
| 20260507072648 | 19 | 73 | 1.6 | 9.7 | 0.00 | 0.00 | 0.00 | 28 | 968.0 |
| 20260507072130 | 20 | 73 | 6.4 | 9.7 | 0.00 | 0.00 | 0.00 | 28 | 967.9 |
| 20260507071635 | 20 | 73 | 4.8 | 11.3 | 0.00 | 0.00 | 0.00 | 28 | 967.8 |
| 20260507071153 | 20 | 73 | 0.0 | 3.2 | 0.00 | 0.00 | 0.00 | 28 | 967.9 |
| 20260507070637 | 20 | 73 | 0.0 | 1.6 | 0.00 | 0.00 | 0.00 | 28 | 967.9 |
| 20260507070142 | 20 | 73 | 0.0 | 8.0 | 0.00 | 0.00 | 0.00 | 29 | 967.9 |
| 20260507065646 | 20 | 73 | 3.2 | 8.0 | 0.00 | 0.00 | 0.00 | 29 | 967.9 |
| 20260507065125 | 20 | 73 | 0.0 | 1.6 | 0.00 | 0.00 | 0.00 | 29 | 967.9 |
| 20260507064628 | 20 | 73 | 0.0 | 9.7 | 0.00 | 0.00 | 0.00 | 28 | 967.9 |
| 20260507064133 | 20 | 73 | 4.8 | 9.7 | 0.00 | 0.00 | 0.00 | 28 | 967.8 |
| 20260507063637 | 20 | 73 | 4.8 | 8.0 | 0.00 | 0.00 | 0.00 | 28 | 967.9 |
| 20260507063143 | 20 | 73 | 0.0 | 0.0 | 0.00 | 0.00 | 0.00 | 28 | 967.8 |
| 20260507062640 | 20 | 73 | 0.0 | 4.8 | 0.00 | 0.00 | 0.00 | 27 | 967.9 |
| 20260507062205 | 21 | 73 | 1.6 | 4.8 | 0.00 | 0.00 | 0.00 | 27 | 967.9 |
| 20260507061628 | 21 | 73 | 0.0 | 0.0 | 0.00 | 0.00 | 0.00 | 27 | 967.8 |
| 20260507061134 | 21 | 73 | 0.0 | 0.0 | 0.00 | 0.00 | 0.00 | 27 | 967.8 |
| 20260507060632 | 21 | 73 | 0.0 | 0.0 | 0.00 | 0.00 | 0.00 | 26 | 967.9 |
| 20260507060137 | 21 | 73 | 0.0 | 0.0 | 0.00 | 0.00 | 0.00 | 26 | 967.8 |
| 20260507055656 | 21 | 73 | 0.0 | 0.0 | 0.00 | 0.00 | 0.00 | 26 | 967.9 |
| 20260507055139 | 21 | 73 | 0.0 | 1.6 | 0.00 | 0.00 | 0.00 | 26 | 967.9 |
| 20260507054637 | 21 | 73 | 0.0 | 0.0 | 0.00 | 0.00 | 0.00 | 26 | 967.9 |
| 20260507054142 | 21 | 73 | 0.0 | 1.6 | 0.00 | 0.00 | 0.00 | 26 | 967.8 |
| 20260507053626 | 21 | 73 | 0.0 | 1.6 | 0.00 | 0.00 | 0.00 | 27 | 967.9 |
| 20260507053130 | 21 | 73 | 0.0 | 0.0 | 0.00 | 0.00 | 0.00 | 27 | 967.9 |
| 20260507052633 | 21 | 73 | 0.0 | 0.0 | 0.00 | 0.00 | 0.00 | 28 | 967.9 |
| 20260507052158 | 22 | 73 | 0.0 | 0.0 | 0.00 | 0.00 | 0.00 | 28 | 967.9 |
| 20260507051702 | 22 | 73 | 0.0 | 0.0 | 0.00 | 0.00 | 0.00 | 28 | 967.9 |
| 20260507051145 | 22 | 73 | 0.0 | 0.0 | 0.00 | 0.00 | 0.00 | 28 | 967.9 |
| 20260507050642 | 22 | 73 | 0.0 | 0.0 | 0.00 | 0.00 | 0.00 | 26 | 967.9 |
| 20260507050125 | 22 | 73 | 0.0 | 0.0 | 0.00 | 0.00 | 0.00 | 26 | 967.8 |
| 20260507045629 | 22 | 73 | 0.0 | 0.0 | 0.00 | 0.00 | 0.00 | 26 | 967.7 |
| 20260507045128 | 22 | 73 | 0.0 | 0.0 | 0.00 | 0.00 | 0.00 | 25 | 967.6 |
| 20260507044633 | 22 | 73 | 0.0 | 3.2 | 0.00 | 0.00 | 0.00 | 25 | 967.7 |
| 20260507044158 | 22 | 73 | 0.0 | 3.2 | 0.00 | 0.00 | 0.00 | 25 | 967.6 |
| 20260507043642 | 22 | 73 | 0.0 | 3.2 | 0.00 | 0.00 | 0.00 | 25 | 967.6 |
| 20260507043146 | 23 | 73 | 0.0 | 0.0 | 0.00 | 0.00 | 0.00 | 24 | 967.6 |
| 20260507042643 | 23 | 73 | 0.0 | 0.0 | 0.00 | 0.00 | 0.00 | 24 | 967.5 |
| 20260507042149 | 23 | 73 | 0.0 | 0.0 | 0.00 | 0.00 | 0.00 | 24 | 967.5 |
| 20260507041632 | 23 | 73 | 0.0 | 0.0 | 0.00 | 0.00 | 0.00 | 24 | 967.4 |
| 20260507041157 | 23 | 73 | 0.0 | 0.0 | 0.00 | 0.00 | 0.00 | 23 | 967.4 |
| 20260507040641 | 23 | 73 | 0.0 | 0.0 | 0.00 | 0.00 | 0.00 | 23 | 967.3 |
| 20260507040146 | 23 | 73 | 0.0 | 0.0 | 0.00 | 0.00 | 0.00 | 22 | 967.2 |
| 20260507035643 | 24 | 73 | 0.0 | 0.0 | 0.00 | 0.00 | 0.00 | 22 | 967.2 |
| 20260507035151 | 24 | 73 | 0.0 | 0.0 | 0.00 | 0.00 | 0.00 | 22 | 967.0 |
| 20260507034634 | 24 | 73 | 0.0 | 4.8 | 0.00 | 0.00 | 0.00 | 22 | 966.9 |
| 20260507034159 | 24 | 73 | 1.6 | 4.8 | 0.00 | 0.00 | 0.00 | 21 | 967.0 |
| 20260507033702 | 25 | 73 | 0.0 | 0.0 | 0.00 | 0.00 | 0.00 | 22 | 966.9 |
| 20260507033139 | 25 | 73 | 0.0 | 6.4 | 0.00 | 0.00 | 0.00 | 21 | 966.8 |
| 20260507032643 | 25 | 73 | 0.0 | 6.4 | 0.00 | 0.00 | 0.00 | 21 | 966.7 |
| 20260507032127 | 25 | 73 | 0.0 | 1.6 | 0.00 | 0.00 | 0.00 | 21 | 966.7 |
| 20260507031633 | 25 | 73 | 0.0 | 3.2 | 0.00 | 0.00 | 0.00 | 21 | 966.7 |
| 20260507031130 | 25 | 73 | 0.0 | 3.2 | 0.00 | 0.00 | 0.00 | 21 | 966.6 |
| 20260507030635 | 25 | 73 | 0.0 | 6.4 | 0.00 | 0.00 | 0.00 | 20 | 966.5 |
| 20260507030139 | 25 | 73 | 0.0 | 6.4 | 0.00 | 0.00 | 0.00 | 20 | 966.4 |
| 20260507025638 | 25 | 73 | 0.0 | 6.4 | 0.00 | 0.00 | 0.00 | 20 | 966.3 |
| 20260507025203 | 26 | 73 | 1.6 | 6.4 | 0.00 | 0.00 | 0.00 | 20 | 966.3 |
| 20260507024627 | 26 | 73 | 1.6 | 6.4 | 0.00 | 0.00 | 0.00 | 20 | 966.3 |
| 20260507024132 | 26 | 73 | 1.6 | 6.4 | 0.00 | 0.00 | 0.00 | 20 | 966.2 |
| 20260507023636 | 26 | 73 | 0.0 | 8.0 | 0.00 | 0.00 | 0.00 | 20 | 966.2 |
| 20260507023134 | 26 | 73 | 0.0 | 8.0 | 0.00 | 0.00 | 0.00 | 20 | 966.0 |
| 20260507022638 | 26 | 70 | 0.0 | 8.0 | 0.00 | 0.00 | 0.00 | 19 | 966.1 |
| 20260507022203 | 26 | 74 | 0.0 | 6.4 | 0.00 | 0.00 | 0.00 | 19 | 966.1 |
| 20260507021648 | 26 | 74 | 0.0 | 9.7 | 0.00 | 0.00 | 0.00 | 19 | 966.1 |
| 20260507021154 | 27 | 80 | 0.0 | 9.7 | 0.00 | 0.00 | 0.00 | 19 | 966.1 |
| 20260507020631 | 27 | 76 | 1.6 | 11.3 | 0.00 | 0.00 | 0.00 | 19 | 966.0 |
| 20260507020135 | 27 | 92 | 3.2 | 17.7 | 0.00 | 0.00 | 0.00 | 19 | 966.0 |
| 20260507015641 | 27 | 140 | 4.8 | 17.7 | 0.00 | 0.00 | 0.00 | 19 | 966.0 |
| 20260507015146 | 27 | 103 | 1.6 | 11.3 | 0.00 | 0.00 | 0.00 | 19 | 966.0 |
| 20260507014650 | 27 | 115 | 1.6 | 9.7 | 0.00 | 0.00 | 0.00 | 19 | 966.0 |
| 20260507014134 | 27 | 98 | 3.2 | 16.1 | 0.00 | 0.00 | 0.00 | 19 | 965.9 |
| 20260507013637 | 27 | 150 | 3.2 | 16.1 | 0.00 | 0.00 | 0.00 | 19 | 965.8 |
| 20260507013150 | 27 | 135 | 0.0 | 11.3 | 0.00 | 0.00 | 0.00 | 19 | 965.8 |
| 20260507012635 | 27 | 157 | 0.0 | 29.0 | 0.00 | 0.00 | 0.00 | 19 | 965.8 |
| 20260507012125 | 27 | 158 | 8.0 | 29.0 | 0.00 | 0.00 | 0.00 | 19 | 965.9 |
| 20260507011630 | 27 | 161 | 12.9 | 27.4 | 0.00 | 0.00 | 0.00 | 19 | 965.8 |
| 20260507011133 | 27 | 153 | 9.7 | 25.7 | 0.00 | 0.00 | 0.00 | 19 | 965.7 |
| 20260507010631 | 27 | 150 | 9.7 | 29.0 | 0.00 | 0.00 | 0.00 | 19 | 965.7 |
| 20260507010152 | 27 | 170 | 12.9 | 27.4 | 0.00 | 0.00 | 0.00 | 20 | 965.7 |
| 20260507005636 | 27 | 155 | 9.7 | 27.4 | 0.00 | 0.00 | 0.00 | 19 | 965.8 |
| 20260507005125 | 27 | 154 | 11.3 | 27.4 | 0.00 | 0.00 | 0.00 | 19 | 965.7 |
| 20260507004645 | 27 | 156 | 9.7 | 30.6 | 0.00 | 0.00 | 0.00 | 19 | 965.8 |
| 20260507004127 | 27 | 162 | 17.7 | 30.6 | 0.00 | 0.00 | 0.00 | 20 | 965.8 |
| 20260507003631 | 27 | 156 | 8.0 | 29.0 | 0.00 | 0.00 | 0.00 | 19 | 965.7 |
| 20260507003135 | 27 | 140 | 14.5 | 33.8 | 0.00 | 0.00 | 0.00 | 19 | 965.8 |
| 20260507002640 | 27 | 165 | 19.3 | 33.8 | 0.00 | 0.00 | 0.00 | 20 | 965.8 |
| 20260507002146 | 27 | 151 | 16.1 | 29.0 | 0.00 | 0.00 | 0.00 | 19 | 965.9 |
| 20260507001645 | 27 | 153 | 9.7 | 33.8 | 0.00 | 0.00 | 0.00 | 19 | 965.9 |
| 20260507001128 | 27 | 163 | 12.9 | 33.8 | 0.00 | 0.00 | 0.00 | 20 | 965.9 |
| 20260507000632 | 27 | 141 | 17.7 | 35.4 | 0.00 | 0.00 | 0.00 | 20 | 965.8 |
| 20260507000136 | 27 | 172 | 12.9 | 22.5 | 0.00 | 0.00 | 0.00 | 19 | 965.9 |
| 20260506235640 | 27 | 156 | 4.8 | 32.2 | 0.00 | 0.00 | 0.00 | 20 | 965.9 |
| 20260506235140 | 27 | 177 | 6.4 | 32.2 | 0.00 | 0.00 | 0.00 | 20 | 965.9 |
| 20260506234637 | 27 | 163 | 20.9 | 33.8 | 0.00 | 0.00 | 0.00 | 20 | 965.8 |
| 20260506234125 | 27 | 173 | 14.5 | 33.8 | 0.00 | 0.00 | 0.00 | 20 | 965.9 |
| 20260506233630 | 27 | 161 | 17.7 | 40.2 | 0.00 | 0.00 | 0.00 | 20 | 966.1 |
| 20260506233135 | 27 | 138 | 20.9 | 40.2 | 0.00 | 0.00 | 0.00 | 19 | 966.1 |
| 20260506232640 | 27 | 138 | 4.8 | 30.6 | 0.00 | 0.00 | 0.00 | 19 | 966.1 |
| 20260506232137 | 27 | 153 | 8.0 | 30.6 | 0.00 | 0.00 | 0.00 | 20 | 966.2 |
| 20260506231642 | 27 | 161 | 9.7 | 22.5 | 0.00 | 0.00 | 0.00 | 19 | 966.2 |
| 20260506231148 | 28 | 153 | 11.3 | 24.1 | 0.00 | 0.00 | 0.00 | 20 | 966.3 |
| 20260506230625 | 27 | 158 | 9.7 | 24.1 | 0.00 | 0.00 | 0.00 | 20 | 966.3 |
| 20260506230130 | 27 | 155 | 9.7 | 41.8 | 0.00 | 0.00 | 0.00 | 20 | 966.4 |
| 20260506225634 | 27 | 168 | 11.3 | 41.8 | 0.00 | 0.00 | 0.00 | 21 | 966.4 |
| 20260506225138 | 27 | 167 | 16.1 | 33.8 | 0.00 | 0.00 | 0.00 | 21 | 966.4 |
| 20260506224638 | 27 | 150 | 14.5 | 35.4 | 0.00 | 0.00 | 0.00 | 21 | 966.5 |
| 20260506224143 | 27 | 170 | 19.3 | 35.4 | 0.00 | 0.00 | 0.00 | 20 | 966.5 |
| 20260506223640 | 27 | 169 | 19.3 | 35.4 | 0.00 | 0.00 | 0.00 | 20 | 966.6 |
| 20260506223205 | 27 | 155 | 14.5 | 27.4 | 0.00 | 0.00 | 0.00 | 20 | 966.7 |
| 20260506222627 | 27 | 153 | 8.0 | 27.4 | 0.00 | 0.00 | 0.00 | 21 | 966.6 |
| 20260506222132 | 27 | 167 | 16.1 | 29.0 | 0.00 | 0.00 | 0.00 | 20 | 966.8 |
| 20260506221630 | 27 | 169 | 12.9 | 38.6 | 0.00 | 0.00 | 0.00 | 21 | 966.9 |
| 20260506221155 | 27 | 171 | 22.5 | 38.6 | 0.00 | 0.00 | 0.00 | 20 | 966.9 |
| 20260506220639 | 27 | 165 | 6.4 | 29.0 | 0.00 | 0.00 | 0.00 | 22 | 967.0 |
| 20260506220124 | 27 | 163 | 11.3 | 37.0 | 0.00 | 0.00 | 0.00 | 22 | 967.0 |
| 20260506215628 | 27 | 157 | 20.9 | 37.0 | 0.00 | 0.00 | 0.00 | 21 | 967.2 |
| 20260506215133 | 27 | 172 | 19.3 | 32.2 | 0.00 | 0.00 | 0.00 | 21 | 967.3 |
| 20260506214632 | 27 | 156 | 16.1 | 29.0 | 0.00 | 0.00 | 0.00 | 20 | 967.2 |
| 20260506214157 | 27 | 116 | 6.4 | 32.2 | 0.00 | 0.00 | 0.00 | 21 | 967.3 |
| 20260506213641 | 28 | 160 | 12.9 | 30.6 | 0.00 | 0.00 | 0.00 | 21 | 967.4 |
| 20260506213125 | 28 | 146 | 9.7 | 22.5 | 0.00 | 0.00 | 0.00 | 21 | 967.6 |
| 20260506212630 | 27 | 165 | 12.9 | 30.6 | 0.00 | 0.00 | 0.00 | 21 | 967.6 |
| 20260506212131 | 27 | 341 | 19.3 | 45.1 | 0.00 | 0.00 | 0.00 | 21 | 967.6 |
| 20260506211629 | 27 | 152 | 11.3 | 30.6 | 0.00 | 0.00 | 0.00 | 21 | 967.8 |
| 20260506211132 | 27 | 165 | 9.7 | 40.2 | 0.00 | 0.00 | 0.00 | 21 | 967.9 |
| 20260506210637 | 27 | 155 | 17.7 | 40.2 | 0.00 | 0.00 | 0.00 | 21 | 968.0 |
| 20260506210142 | 27 | 155 | 14.5 | 40.2 | 0.00 | 0.00 | 0.00 | 22 | 968.1 |
| 20260506205639 | 27 | 184 | 17.7 | 45.1 | 0.00 | 0.00 | 0.00 | 22 | 968.1 |
| 20260506205205 | 27 | 169 | 14.5 | 41.8 | 0.00 | 0.00 | 0.00 | 21 | 968.2 |
| 20260506204628 | 27 | 166 | 17.7 | 33.8 | 0.00 | 0.00 | 0.00 | 21 | 968.2 |
| 20260506204132 | 27 | 157 | 6.4 | 25.7 | 0.00 | 0.00 | 0.00 | 21 | 968.2 |
| 20260506203658 | 27 | 175 | 9.7 | 27.4 | 0.00 | 0.00 | 0.00 | 22 | 968.3 |
| 20260506203203 | 27 | 153 | 1.6 | 41.8 | 0.00 | 0.00 | 0.00 | 22 | 968.5 |
| 20260506202639 | 27 | 173 | 8.0 | 41.8 | 0.00 | 0.00 | 0.00 | 22 | 968.4 |
| 20260506202124 | 27 | 162 | 11.3 | 32.2 | 0.00 | 0.00 | 0.00 | 21 | 968.4 |
| 20260506201628 | 27 | 153 | 14.5 | 37.0 | 0.00 | 0.00 | 0.00 | 22 | 968.4 |
| 20260506201133 | 26 | 149 | 4.8 | 46.7 | 0.00 | 0.00 | 0.00 | 22 | 968.4 |
| 20260506200637 | 27 | 355 | 3.2 | 25.7 | 0.00 | 0.00 | 0.00 | 22 | 968.5 |
| 20260506200203 | 27 | 169 | 19.3 | 32.2 | 0.00 | 0.00 | 0.00 | 21 | 968.6 |
| 20260506195640 | 27 | 161 | 16.1 | 35.4 | 0.00 | 0.00 | 0.00 | 21 | 968.6 |
| 20260506195124 | 27 | 153 | 14.5 | 24.1 | 0.00 | 0.00 | 0.00 | 21 | 968.7 |
| 20260506194629 | 27 | 176 | 9.7 | 24.1 | 0.00 | 0.00 | 0.00 | 21 | 968.7 |
| 20260506194132 | 27 | 138 | 12.9 | 27.4 | 0.00 | 0.00 | 0.00 | 22 | 968.8 |
| 20260506193630 | 27 | 158 | 14.5 | 46.7 | 0.00 | 0.00 | 0.00 | 21 | 968.8 |
| 20260506193135 | 28 | 161 | 14.5 | 46.7 | 0.00 | 0.00 | 0.00 | 21 | 968.9 |
| 20260506192640 | 28 | 159 | 6.4 | 32.2 | 0.00 | 0.00 | 0.00 | 21 | 968.8 |
| 20260506192145 | 28 | 157 | 22.5 | 32.2 | 0.00 | 0.00 | 0.00 | 20 | 968.9 |
| 20260506191643 | 28 | 157 | 11.3 | 30.6 | 0.00 | 0.00 | 0.00 | 21 | 968.9 |
| 20260506191127 | 29 | 153 | 12.9 | 30.6 | 0.00 | 0.00 | 0.00 | 20 | 969.0 |
| 20260506190631 | 29 | 344 | 9.7 | 20.9 | 0.00 | 0.00 | 0.00 | 20 | 969.1 |
| 20260506190156 | 28 | 5 | 4.8 | 22.5 | 0.00 | 0.00 | 0.00 | 21 | 969.1 |
| 20260506185632 | 28 | 164 | 8.0 | 22.5 | 0.00 | 0.00 | 0.00 | 20 | 969.2 |
| 20260506185137 | 28 | 164 | 1.6 | 11.3 | 0.00 | 0.00 | 0.00 | 21 | 969.2 |
| 20260506184702 | 27 | 164 | 1.6 | 19.3 | 0.00 | 0.00 | 0.00 | 22 | 969.4 |
| 20260506184125 | 28 | 165 | 8.0 | 19.3 | 0.00 | 0.00 | 0.00 | 21 | 969.3 |
| 20260506183630 | 27 | 123 | 3.2 | 27.4 | 0.00 | 0.00 | 0.00 | 21 | 969.4 |
| 20260506183128 | 27 | 10 | 4.8 | 32.2 | 0.00 | 0.00 | 0.00 | 23 | 969.5 |
| 20260506182633 | 26 | 178 | 1.6 | 32.2 | 0.00 | 0.00 | 0.00 | 23 | 969.6 |
| 20260506182139 | 27 | 165 | 3.2 | 24.1 | 0.00 | 0.00 | 0.00 | 22 | 969.7 |
| 20260506181637 | 27 | 163 | 8.0 | 17.7 | 0.00 | 0.00 | 0.00 | 22 | 969.6 |
| 20260506181141 | 27 | 22 | 4.8 | 17.7 | 0.00 | 0.00 | 0.00 | 23 | 969.8 |
| 20260506180625 | 26 | 158 | 3.2 | 27.4 | 0.00 | 0.00 | 0.00 | 23 | 969.8 |
| 20260506180130 | 26 | 158 | 6.4 | 27.4 | 0.00 | 0.00 | 0.00 | 23 | 969.8 |
| 20260506175629 | 26 | 346 | 14.5 | 22.5 | 0.00 | 0.00 | 0.00 | 26 | 969.8 |
| 20260506175133 | 26 | 153 | 12.9 | 24.1 | 0.00 | 0.00 | 0.00 | 24 | 969.9 |
| 20260506174637 | 26 | 143 | 6.4 | 20.9 | 0.00 | 0.00 | 0.00 | 25 | 969.9 |
| 20260506174141 | 25 | 164 | 14.5 | 24.1 | 0.00 | 0.00 | 0.00 | 25 | 970.0 |
| 20260506173706 | 26 | 161 | 12.9 | 24.1 | 0.00 | 0.00 | 0.00 | 25 | 969.9 |
| 20260506173142 | 26 | 163 | 1.6 | 22.5 | 0.00 | 0.00 | 0.00 | 26 | 969.9 |
| 20260506172647 | 25 | 162 | 4.8 | 22.5 | 0.00 | 0.00 | 0.00 | 26 | 969.9 |
| 20260506172130 | 25 | 355 | 11.3 | 19.3 | 0.00 | 0.00 | 0.00 | 26 | 969.9 |
| 20260506171634 | 25 | 145 | 11.3 | 19.3 | 0.00 | 0.00 | 0.00 | 25 | 969.9 |
| 20260506171141 | 25 | 133 | 3.2 | 16.1 | 0.00 | 0.00 | 0.00 | 26 | 969.8 |
| 20260506170658 | 25 | 67 | 0.0 | 14.5 | 0.00 | 0.00 | 0.00 | 26 | 969.8 |
| 20260506170141 | 25 | 153 | 6.4 | 14.5 | 0.00 | 0.00 | 0.00 | 26 | 969.9 |
| 20260506165625 | 25 | 153 | 3.2 | 16.1 | 0.00 | 0.00 | 0.00 | 26 | 969.8 |
| 20260506165149 | 25 | 153 | 4.8 | 16.1 | 0.00 | 0.00 | 0.00 | 27 | 969.9 |
| 20260506164627 | 24 | 152 | 1.6 | 19.3 | 0.00 | 0.00 | 0.00 | 27 | 969.9 |
| 20260506164130 | 25 | 152 | 6.4 | 19.3 | 0.00 | 0.00 | 0.00 | 26 | 969.8 |
| 20260506163635 | 25 | 151 | 3.2 | 16.1 | 0.00 | 0.00 | 0.00 | 25 | 969.8 |
| 20260506163140 | 25 | 177 | 1.6 | 9.7 | 0.00 | 0.00 | 0.00 | 26 | 969.7 |
| 20260506162638 | 25 | 188 | 0.0 | 6.4 | 0.00 | 0.00 | 0.00 | 25 | 969.8 |
| 20260506162203 | 25 | 188 | 1.6 | 6.4 | 0.00 | 0.00 | 0.00 | 26 | 969.7 |
| 20260506161626 | 24 | 188 | 0.0 | 3.2 | 0.00 | 0.00 | 0.00 | 27 | 969.7 |
| 20260506161130 | 24 | 188 | 0.0 | 4.8 | 0.00 | 0.00 | 0.00 | 27 | 969.7 |
| 20260506160656 | 24 | 188 | 1.6 | 6.4 | 0.00 | 0.00 | 0.00 | 26 | 969.8 |
| 20260506160200 | 24 | 188 | 0.0 | 6.4 | 0.00 | 0.00 | 0.00 | 28 | 969.8 |
| 20260506155637 | 23 | 188 | 0.0 | 8.0 | 0.00 | 0.00 | 0.00 | 29 | 969.7 |
| 20260506155203 | 23 | 188 | 1.6 | 14.5 | 0.00 | 0.00 | 0.00 | 28 | 969.7 |
| 20260506154647 | 23 | 188 | 4.8 | 19.3 | 0.00 | 0.00 | 0.00 | 28 | 969.7 |
| 20260506154131 | 23 | 330 | 1.6 | 19.3 | 0.00 | 0.00 | 0.00 | 29 | 969.7 |
| 20260506153635 | 23 | 330 | 4.8 | 17.7 | 0.00 | 0.00 | 0.00 | 30 | 969.8 |
| 20260506153139 | 22 | 328 | 4.8 | 19.3 | 0.00 | 0.00 | 0.00 | 31 | 969.9 |
| 20260506152637 | 22 | 347 | 0.0 | 20.9 | 0.00 | 0.00 | 0.00 | 31 | 969.9 |
| 20260506152203 | 21 | 350 | 14.5 | 20.9 | 0.00 | 0.00 | 0.00 | 32 | 969.9 |
| 20260506151626 | 21 | 344 | 9.7 | 17.7 | 0.00 | 0.00 | 0.00 | 33 | 969.9 |
| 20260506151131 | 20 | 340 | 6.4 | 24.1 | 0.00 | 0.00 | 0.00 | 34 | 969.8 |
| 20260506150635 | 20 | 346 | 12.9 | 24.1 | 0.00 | 0.00 | 0.00 | 35 | 969.9 |
| 20260506150200 | 19 | 333 | 11.3 | 20.9 | 0.00 | 0.00 | 0.00 | 36 | 969.8 |
| 20260506145636 | 18 | 344 | 8.0 | 19.3 | 0.00 | 0.00 | 0.00 | 37 | 969.8 |
| 20260506145202 | 18 | 327 | 4.8 | 30.6 | 0.00 | 0.00 | 0.00 | 39 | 969.8 |
| 20260506144626 | 17 | 330 | 12.9 | 30.6 | 0.00 | 0.00 | 0.00 | 40 | 969.8 |
| 20260506144130 | 17 | 330 | 8.0 | 19.3 | 0.00 | 0.00 | 0.00 | 41 | 969.8 |
| 20260506143655 | 17 | 319 | 9.7 | 20.9 | 0.00 | 0.00 | 0.00 | 42 | 969.8 |